Time;durP1;ratioP1;P1;durP2;ratioP2;P2;SDS_P1;SDS_P2;PMS_P1;PMS_P2;Temp;Humidity;BMP_temperature;BMP_pressure;BME280_temperature;BME280_humidity;BME280_pressure;Samples;Min_cycle;Max_cycle;Signal;HPM_P1;HPM_P2
2022/11/11 00:00:36;;;;;;;73.43;52.08;;;17.20;72.70;;;;;;4947816;28;96875;-53
2022/11/11 00:03:02;;;;;;;73.63;52.17;;;17.20;72.70;;;;;;4947525;28;96534;-54
2022/11/11 00:05:28;;;;;;;73.07;52.17;;;17.20;72.70;;;;;;4942999;28;95290;-54
2022/11/11 00:08:04;;;;;;;71.78;52.03;;;17.20;72.70;;;;;;4940681;28;96331;-52
2022/11/11 00:10:30;;;;;;;73.07;52.35;;;17.20;72.80;;;;;;4939599;28;97498;-53
2022/11/11 00:13:04;;;;;;;73.47;52.30;;;17.20;72.70;;;;;;4954214;28;96971;-54
2022/11/11 00:15:30;;;;;;;72.47;52.08;;;17.20;72.60;;;;;;4944727;28;94899;-50
2022/11/11 00:26:13;;;;;;;74.18;52.50;;;17.20;72.60;;;;;;4941045;28;95487;-52
2022/11/11 00:28:40;;;;;;;72.50;52.17;;;17.20;72.70;;;;;;4937494;28;96195;-54
2022/11/11 00:31:11;;;;;;;73.68;52.53;;;17.10;72.70;;;;;;4938330;28;97189;-53
2022/11/11 00:33:37;;;;;;;72.50;51.95;;;17.10;72.60;;;;;;4943268;28;95236;-55
2022/11/11 00:36:05;;;;;;;72.57;52.38;;;17.10;72.70;;;;;;4944114;28;95378;-53
2022/11/11 00:38:45;;;;;;;72.32;52.15;;;17.10;72.60;;;;;;4938540;28;96482;-54
2022/11/11 00:41:19;;;;;;;72.73;52.63;;;17.10;72.70;;;;;;4944613;28;97147;-54
2022/11/11 00:43:46;;;;;;;71.65;51.95;;;17.10;72.60;;;;;;4936897;28;98611;-53
2022/11/11 00:51:43;;;;;;;72.22;52.25;;;17.10;72.70;;;;;;4942681;28;96545;-52
2022/11/11 00:54:09;;;;;;;72.10;51.88;;;17.10;72.70;;;;;;4941537;28;96052;-54
2022/11/11 00:56:38;;;;;;;71.63;51.85;;;17.10;72.80;;;;;;4944536;28;97414;-49
2022/11/11 00:59:06;;;;;;;71.88;51.80;;;17.10;72.80;;;;;;4946955;28;95451;-55
2022/11/11 01:01:36;;;;;;;72.07;52.08;;;17.10;72.80;;;;;;4936744;28;95652;-50
2022/11/11 01:04:02;;;;;;;71.82;52.08;;;17.10;72.80;;;;;;4942926;28;98790;-54
2022/11/11 01:06:28;;;;;;;73.63;52.08;;;17.10;72.70;;;;;;4940241;28;95144;-53
2022/11/11 01:08:53;;;;;;;71.35;51.53;;;17.10;72.70;;;;;;4938793;28;95976;-54
2022/11/11 01:11:21;;;;;;;72.60;51.85;;;17.10;72.70;;;;;;4937132;28;99287;-53
2022/11/11 01:13:48;;;;;;;72.75;51.90;;;17.10;72.70;;;;;;4943753;28;100301;-54
2022/11/11 01:16:16;;;;;;;72.47;51.95;;;17.10;72.70;;;;;;4945172;28;94996;-54
2022/11/11 01:18:42;;;;;;;71.90;51.92;;;17.10;72.70;;;;;;4948080;28;96376;-52
2022/11/11 01:21:12;;;;;;;72.47;52.10;;;17.10;72.70;;;;;;4937282;28;95519;-54
2022/11/11 01:23:39;;;;;;;72.95;52.38;;;17.10;72.70;;;;;;4948628;28;95090;-55
2022/11/11 01:26:14;;;;;;;72.30;52.33;;;17.10;72.80;;;;;;4934416;28;95827;-53
2022/11/11 01:28:39;;;;;;;72.43;51.95;;;17.10;72.80;;;;;;4932069;28;95447;-54
2022/11/11 01:31:08;;;;;;;72.50;52.33;;;17.00;72.60;;;;;;4945043;28;98407;-53
2022/11/11 01:33:34;;;;;;;71.03;51.25;;;17.10;72.80;;;;;;4940283;28;95179;-53
2022/11/11 01:36:14;;;;;;;72.15;52.00;;;17.10;72.80;;;;;;4934807;28;98065;-54
2022/11/11 01:38:44;;;;;;;71.75;51.90;;;17.10;72.80;;;;;;4936180;28;96377;-54
2022/11/11 01:41:33;;;;;;;73.85;52.00;;;17.10;72.80;;;;;;4935623;28;96244;-55
2022/11/11 01:44:11;;;;;;;71.88;51.88;;;17.10;72.80;;;;;;4934305;28;96759;-54
2022/11/11 01:46:46;;;;;;;73.18;52.55;;;17.10;72.80;;;;;;4942143;28;95322;-55
2022/11/11 01:49:49;;;;;;;72.00;51.85;;;17.10;72.80;;;;;;4951602;28;95529;-51
2022/11/11 01:52:21;;;;;;;71.63;52.20;;;17.00;72.70;;;;;;4945128;28;98198;-51
2022/11/11 01:54:54;;;;;;;71.68;51.92;;;17.00;72.80;;;;;;4947783;28;95728;-55
2022/11/11 01:57:38;;;;;;;72.80;52.20;;;17.00;72.80;;;;;;4942043;28;98139;-55
2022/11/11 02:00:10;;;;;;;71.95;52.22;;;17.00;72.80;;;;;;4936147;28;95391;-54
2022/11/11 02:02:50;;;;;;;72.15;52.05;;;17.00;72.70;;;;;;4939969;28;96238;-54
2022/11/11 02:05:44;;;;;;;72.50;52.40;;;17.00;72.70;;;;;;4941367;28;95060;-51
2022/11/11 02:08:14;;;;;;;71.80;51.60;;;17.00;72.80;;;;;;4942831;28;98205;-51
2022/11/11 02:10:44;;;;;;;72.13;52.10;;;17.00;72.80;;;;;;4940255;28;101143;-54
2022/11/11 02:15:59;;;;;;;71.93;52.05;;;17.00;72.80;;;;;;4947022;28;94972;-52
2022/11/11 02:18:27;;;;;;;72.70;52.00;;;17.00;72.90;;;;;;4948070;28;95018;-53
2022/11/11 02:20:53;;;;;;;71.88;52.28;;;17.00;72.90;;;;;;4951751;28;99231;-53
2022/11/11 02:23:31;;;;;;;71.63;51.85;;;17.00;72.90;;;;;;4952635;28;95887;-54
2022/11/11 02:26:00;;;;;;;71.93;51.90;;;16.90;72.80;;;;;;4955335;28;95003;-49
2022/11/11 02:28:26;;;;;;;72.32;52.28;;;17.00;72.90;;;;;;4953089;28;94050;-50
2022/11/11 02:30:52;;;;;;;72.35;52.40;;;17.00;72.90;;;;;;4944857;28;95295;-53
2022/11/11 02:33:18;;;;;;;72.90;52.55;;;17.00;72.20;;;;;;4943010;28;95374;-51
2022/11/11 02:35:55;;;;;;;71.93;51.78;;;17.00;72.90;;;;;;4946934;28;96788;-51
2022/11/11 02:38:21;;;;;;;72.55;52.15;;;17.00;72.90;;;;;;4954089;28;98478;-53
2022/11/11 02:43:32;;;;;;;71.53;52.03;;;17.00;72.90;;;;;;4948875;28;100304;-53
2022/11/11 02:45:58;;;;;;;73.20;52.25;;;17.00;72.80;;;;;;4942726;28;95551;-53
2022/11/11 02:48:25;;;;;;;71.90;51.90;;;17.00;72.90;;;;;;4954798;28;102310;-54
2022/11/11 02:50:51;;;;;;;70.90;51.55;;;16.90;72.90;;;;;;4942621;28;96775;-53
2022/11/11 02:53:16;;;;;;;72.32;52.53;;;16.90;72.90;;;;;;4945474;28;94818;-53
2022/11/11 02:55:42;;;;;;;71.90;51.67;;;17.00;72.90;;;;;;4948070;28;96377;-53
2022/11/11 02:58:08;;;;;;;72.38;51.90;;;17.00;73.00;;;;;;4940883;28;97652;-55
2022/11/11 03:00:34;;;;;;;71.78;51.75;;;16.90;72.80;;;;;;4954135;28;96254;-53
2022/11/11 03:03:00;;;;;;;72.38;52.20;;;16.90;72.90;;;;;;4945823;28;96609;-54
2022/11/11 03:05:25;;;;;;;71.32;51.58;;;16.90;73.00;;;;;;4949334;28;94998;-52
2022/11/11 03:07:51;;;;;;;72.22;52.05;;;16.90;72.90;;;;;;4942598;28;97476;-54
2022/11/11 03:10:17;;;;;;;71.57;52.25;;;16.90;72.90;;;;;;4936842;28;94742;-52
2022/11/11 03:12:42;;;;;;;71.70;51.75;;;16.90;73.00;;;;;;4942237;28;97772;-51
2022/11/11 03:15:09;;;;;;;72.53;52.08;;;16.90;72.90;;;;;;4949040;28;95839;-53
2022/11/11 03:17:40;;;;;;;71.95;51.65;;;16.90;73.00;;;;;;4946903;28;94380;-53
2022/11/11 03:23:11;;;;;;;71.47;52.28;;;16.90;73.00;;;;;;4942120;28;94847;-55
2022/11/11 03:25:39;;;;;;;71.35;52.03;;;16.90;73.00;;;;;;4948417;28;96031;-53
2022/11/11 03:28:12;;;;;;;72.57;53.05;;;16.90;73.10;;;;;;4946348;28;95656;-55
2022/11/11 03:30:41;;;;;;;71.72;52.10;;;16.90;73.00;;;;;;4947469;28;95841;-52
2022/11/11 03:33:08;;;;;;;71.25;51.83;;;16.90;73.00;;;;;;4945961;28;95792;-52
2022/11/11 03:35:34;;;;;;;71.55;51.92;;;16.90;73.10;;;;;;4940276;28;96828;-51
2022/11/11 03:38:22;;;;;;;72.20;52.08;;;16.90;73.00;;;;;;4943405;28;95231;-54
2022/11/11 03:40:52;;;;;;;72.68;52.72;;;16.80;72.90;;;;;;4940359;28;95633;-50
2022/11/11 03:43:19;;;;;;;71.97;52.75;;;16.80;73.00;;;;;;4954342;28;94546;-52
2022/11/11 03:45:46;;;;;;;72.53;52.28;;;16.80;72.90;;;;;;4937403;28;95383;-52
2022/11/11 03:48:12;;;;;;;72.65;52.65;;;16.90;73.10;;;;;;4940707;28;96150;-51
2022/11/11 03:50:38;;;;;;;72.40;52.38;;;16.80;73.10;;;;;;4941876;28;97567;-52
2022/11/11 03:53:04;;;;;;;71.40;51.72;;;16.80;73.10;;;;;;4937427;28;97061;-52
2022/11/11 03:55:30;;;;;;;72.85;52.38;;;16.80;73.00;;;;;;4944906;28;101829;-53
2022/11/11 03:57:56;;;;;;;72.35;52.53;;;16.80;73.00;;;;;;4933742;28;97837;-54
2022/11/11 04:00:27;;;;;;;72.80;52.90;;;16.80;73.00;;;;;;4940651;28;95526;-54
2022/11/11 04:11:26;;;;;;;73.22;52.15;;;16.80;73.10;;;;;;4940150;28;96281;-55
2022/11/11 04:16:39;;;;;;;72.80;52.47;;;16.80;73.00;;;;;;4936236;28;96505;-53
2022/11/11 04:22:00;;;;;;;70.93;51.65;;;16.80;73.10;;;;;;4913424;28;95407;-53
2022/11/11 04:27:12;;;;;;;71.90;52.25;;;16.80;73.00;;;;;;4943028;28;96516;-54
2022/11/11 04:29:39;;;;;;;72.53;52.75;;;16.80;73.10;;;;;;4945339;28;95866;-53
2022/11/11 04:35:05;;;;;;;71.70;52.33;;;16.80;73.00;;;;;;4938491;28;100605;-53
2022/11/11 04:37:33;;;;;;;72.47;52.45;;;16.80;73.10;;;;;;4945825;28;94924;-55
2022/11/11 04:42:43;;;;;;;71.80;52.55;;;16.80;73.00;;;;;;4942235;28;96492;-54
2022/11/11 04:48:09;;;;;;;70.75;51.67;;;16.80;73.10;;;;;;4943959;28;95835;-52
2022/11/11 04:50:40;;;;;;;73.65;52.03;;;16.80;73.10;;;;;;4951430;28;97222;-51
2022/11/11 04:53:11;;;;;;;71.80;52.50;;;16.70;72.90;;;;;;4940786;28;95386;-52
2022/11/11 04:58:32;;;;;;;72.70;53.28;;;16.70;73.10;;;;;;4940576;28;99018;-54
2022/11/11 05:00:58;;;;;;;73.25;52.30;;;16.70;73.00;;;;;;4945385;28;94737;-53
2022/11/11 05:03:24;;;;;;;72.40;52.83;;;16.70;73.10;;;;;;4940152;28;95412;-55
2022/11/11 05:09:00;;;;;;;71.93;51.58;;;16.70;73.00;;;;;;4939688;28;96141;-53
2022/11/11 05:11:25;;;;;;;71.60;52.25;;;16.70;73.00;;;;;;4946751;28;95978;-52
2022/11/11 05:22:15;;;;;;;71.97;52.42;;;16.70;73.00;;;;;;4939437;28;95659;-53
2022/11/11 05:27:25;;;;;;;71.13;51.95;;;16.70;73.10;;;;;;4949382;28;96073;-52
2022/11/11 05:29:51;;;;;;;72.22;51.78;;;16.70;73.10;;;;;;4944355;28;95053;-52
2022/11/11 05:32:20;;;;;;;71.68;52.20;;;16.70;73.10;;;;;;4941671;28;96232;-55
2022/11/11 05:34:46;;;;;;;72.55;51.97;;;16.70;73.00;;;;;;4942329;28;96757;-56
2022/11/11 05:37:13;;;;;;;72.40;52.53;;;16.70;73.10;;;;;;4941611;28;96730;-49
2022/11/11 05:39:38;;;;;;;71.50;51.88;;;16.70;73.00;;;;;;4945432;28;94796;-52
2022/11/11 05:42:04;;;;;;;71.28;51.78;;;16.70;73.10;;;;;;4943020;28;98637;-54
2022/11/11 05:44:30;;;;;;;72.05;51.83;;;16.70;73.10;;;;;;4946584;28;95153;-54
2022/11/11 05:46:55;;;;;;;72.35;52.90;;;16.70;73.20;;;;;;4942071;28;95009;-54
2022/11/11 05:49:23;;;;;;;70.78;51.85;;;16.70;73.00;;;;;;4943290;28;95124;-54
2022/11/11 05:51:50;;;;;;;72.60;52.53;;;16.70;73.10;;;;;;4937289;28;96164;-54
2022/11/11 05:54:16;;;;;;;70.47;51.50;;;16.70;73.10;;;;;;4955798;28;95126;-53
2022/11/11 05:56:42;;;;;;;70.93;51.42;;;16.70;73.10;;;;;;4947388;28;95197;-53
2022/11/11 05:59:08;;;;;;;70.68;52.63;;;16.70;73.10;;;;;;4933887;28;97679;-52
2022/11/11 06:01:35;;;;;;;71.45;51.75;;;16.70;73.10;;;;;;4945721;28;95711;-54
2022/11/11 06:04:01;;;;;;;70.68;51.45;;;16.70;73.10;;;;;;4935457;28;97452;-53
2022/11/11 06:06:27;;;;;;;71.00;51.90;;;16.70;73.00;;;;;;4946210;28;98728;-51
2022/11/11 06:08:53;;;;;;;70.95;52.55;;;16.70;73.00;;;;;;4946073;28;95405;-54
2022/11/11 06:11:18;;;;;;;71.05;52.05;;;16.70;73.00;;;;;;4947646;28;95322;-53
2022/11/11 06:13:44;;;;;;;70.72;51.45;;;16.70;73.10;;;;;;4953278;28;94904;-54
2022/11/11 06:16:10;;;;;;;71.78;52.22;;;16.70;73.20;;;;;;4942887;28;96260;-51
2022/11/11 06:18:35;;;;;;;71.45;51.70;;;16.60;73.00;;;;;;4951126;28;96946;-55
2022/11/11 06:21:01;;;;;;;71.47;51.30;;;16.60;72.90;;;;;;4949358;28;95336;-53
2022/11/11 06:23:28;;;;;;;71.03;52.10;;;16.60;73.00;;;;;;4943176;28;97780;-58
2022/11/11 06:26:12;;;;;;;71.10;52.20;;;16.60;73.00;;;;;;4945511;28;96561;-58
2022/11/11 06:28:41;;;;;;;71.28;52.42;;;16.70;73.10;;;;;;4943345;28;95243;-57
2022/11/11 06:31:09;;;;;;;71.65;52.47;;;16.70;73.00;;;;;;4944906;28;95243;-58
2022/11/11 06:33:35;;;;;;;71.15;51.78;;;16.60;73.00;;;;;;4944710;28;100053;-58
2022/11/11 06:36:01;;;;;;;71.43;52.33;;;16.60;73.10;;;;;;4937790;28;96197;-58
2022/11/11 06:38:27;;;;;;;72.38;51.78;;;16.70;73.00;;;;;;4943565;28;96245;-58
2022/11/11 06:40:53;;;;;;;70.80;51.83;;;16.60;73.10;;;;;;4950566;28;94357;-58
2022/11/11 06:43:18;;;;;;;70.97;52.00;;;16.60;73.00;;;;;;4941607;28;94865;-58
2022/11/11 06:45:44;;;;;;;71.78;52.03;;;16.60;72.90;;;;;;4942529;28;95605;-57
2022/11/11 06:48:10;;;;;;;71.88;52.45;;;16.60;73.00;;;;;;4943747;28;96365;-58
2022/11/11 06:50:36;;;;;;;71.68;52.33;;;16.60;72.90;;;;;;4942045;28;96053;-57
2022/11/11 06:53:06;;;;;;;71.13;52.13;;;16.60;73.00;;;;;;4955401;28;95034;-58
2022/11/11 06:55:33;;;;;;;71.95;51.85;;;16.60;73.10;;;;;;4940679;28;95774;-56
2022/11/11 06:58:09;;;;;;;71.95;52.35;;;16.60;73.10;;;;;;4949327;28;94777;-56
2022/11/11 07:00:35;;;;;;;70.90;51.65;;;16.60;73.00;;;;;;4941672;28;99762;-58
2022/11/11 07:03:02;;;;;;;70.63;51.65;;;16.60;73.00;;;;;;4939733;28;94684;-58
2022/11/11 07:05:28;;;;;;;72.20;51.60;;;16.60;73.10;;;;;;4944405;28;94254;-58
2022/11/11 07:07:54;;;;;;;71.80;52.25;;;16.60;73.00;;;;;;4951439;28;95168;-57
2022/11/11 07:10:20;;;;;;;70.25;51.25;;;16.60;73.10;;;;;;4949256;28;95216;-59
2022/11/11 07:12:45;;;;;;;70.32;51.63;;;16.60;73.10;;;;;;4939391;28;96404;-56
2022/11/11 07:15:11;;;;;;;71.82;52.28;;;16.60;73.10;;;;;;4943552;28;95307;-56
2022/11/11 07:17:37;;;;;;;71.25;51.83;;;16.60;73.00;;;;;;4946856;28;95144;-57
2022/11/11 07:20:03;;;;;;;70.60;51.72;;;16.60;73.00;;;;;;4943570;28;100549;-58
2022/11/11 07:22:29;;;;;;;70.57;51.60;;;16.60;73.00;;;;;;4945036;28;95947;-57
2022/11/11 07:24:55;;;;;;;71.68;52.58;;;16.60;73.10;;;;;;4939122;28;95685;-58
2022/11/11 07:27:20;;;;;;;70.65;51.53;;;16.60;73.00;;;;;;4945028;28;95176;-53
2022/11/11 07:29:47;;;;;;;70.38;51.30;;;16.60;73.00;;;;;;4947950;28;94573;-51
2022/11/11 07:32:14;;;;;;;71.70;51.75;;;16.60;73.00;;;;;;4946476;28;96108;-52
2022/11/11 07:34:39;;;;;;;70.70;51.35;;;16.60;73.00;;;;;;4949394;28;95215;-54
2022/11/11 07:37:05;;;;;;;71.03;51.88;;;16.60;73.00;;;;;;4948807;28;96066;-54
2022/11/11 07:39:31;;;;;;;70.95;51.58;;;16.60;73.00;;;;;;4940415;28;96902;-53
2022/11/11 07:41:56;;;;;;;70.43;51.83;;;16.60;73.00;;;;;;4944502;28;95176;-51
2022/11/11 07:44:22;;;;;;;70.97;51.80;;;16.60;72.90;;;;;;4940014;28;96921;-53
2022/11/11 07:46:48;;;;;;;70.82;51.58;;;16.60;73.00;;;;;;4939623;28;95159;-54
2022/11/11 07:49:13;;;;;;;70.80;51.47;;;16.60;72.90;;;;;;4943240;28;95061;-52
2022/11/11 07:51:39;;;;;;;69.90;51.35;;;16.60;72.90;;;;;;4954884;28;94698;-53
2022/11/11 07:54:05;;;;;;;71.05;51.63;;;16.60;73.10;;;;;;4941080;28;94874;-54
2022/11/11 07:56:30;;;;;;;70.38;51.65;;;16.60;73.00;;;;;;4940312;28;96491;-52
2022/11/11 07:58:56;;;;;;;71.85;52.33;;;16.60;72.90;;;;;;4945184;28;99581;-52
2022/11/11 08:01:22;;;;;;;70.53;51.42;;;16.60;72.80;;;;;;4943163;28;97104;-53
2022/11/11 08:03:51;;;;;;;70.30;51.35;;;16.60;73.10;;;;;;4940526;28;97397;-53
2022/11/11 08:06:21;;;;;;;70.00;51.35;;;16.60;73.00;;;;;;4954292;28;95458;-54
2022/11/11 08:08:47;;;;;;;69.93;51.38;;;16.60;73.00;;;;;;4946031;28;96530;-54
2022/11/11 08:11:14;;;;;;;70.07;51.40;;;16.60;73.00;;;;;;4955463;28;95025;-54
2022/11/11 08:13:40;;;;;;;70.22;51.25;;;16.60;73.00;;;;;;4941807;28;95427;-53
2022/11/11 08:16:07;;;;;;;72.05;51.55;;;16.60;73.00;;;;;;4950080;28;98962;-54
2022/11/11 08:18:34;;;;;;;70.25;51.70;;;16.60;73.00;;;;;;4943979;28;95856;-54
2022/11/11 08:21:01;;;;;;;70.32;51.22;;;16.60;73.00;;;;;;4948486;28;95268;-55
2022/11/11 08:23:32;;;;;;;70.35;51.75;;;16.60;73.00;;;;;;4941601;28;96399;-53
2022/11/11 08:26:02;;;;;;;72.45;51.50;;;16.60;73.00;;;;;;4945259;28;99471;-54
2022/11/11 08:28:30;;;;;;;70.65;52.03;;;16.60;72.90;;;;;;4927460;28;96240;-54
2022/11/11 08:30:58;;;;;;;69.80;51.05;;;16.60;73.00;;;;;;4941654;28;102752;-54
2022/11/11 08:33:25;;;;;;;71.13;51.63;;;16.60;73.00;;;;;;4937672;28;95747;-53
2022/11/11 08:35:54;;;;;;;70.78;51.63;;;16.60;72.90;;;;;;4945740;28;95404;-52
2022/11/11 08:38:22;;;;;;;70.25;51.40;;;16.60;72.90;;;;;;4924782;28;95686;-53
2022/11/11 08:40:48;;;;;;;71.10;51.78;;;16.60;72.80;;;;;;4938806;28;95857;-54
2022/11/11 08:43:14;;;;;;;72.28;52.60;;;16.60;72.70;;;;;;4928498;28;95046;-54
2022/11/11 08:45:39;;;;;;;71.22;52.15;;;16.60;72.60;;;;;;4936725;28;95318;-55
2022/11/11 08:48:08;;;;;;;72.13;52.88;;;16.50;72.60;;;;;;4936757;28;96230;-54
2022/11/11 08:50:38;;;;;;;72.40;52.78;;;16.60;72.70;;;;;;4936792;28;96108;-55
2022/11/11 08:53:08;;;;;;;72.28;52.95;;;16.50;72.50;;;;;;4940143;28;95482;-53
2022/11/11 08:55:35;;;;;;;73.40;53.17;;;16.50;72.60;;;;;;4935227;28;95049;-53
2022/11/11 08:58:03;;;;;;;72.35;52.53;;;16.50;72.60;;;;;;4945394;28;95199;-55
2022/11/11 09:00:29;;;;;;;72.70;52.53;;;16.60;72.60;;;;;;4944321;28;96100;-52
2022/11/11 09:03:00;;;;;;;71.97;52.25;;;16.60;72.40;;;;;;4942820;28;95061;-53
2022/11/11 09:05:26;;;;;;;71.45;52.03;;;16.60;72.30;;;;;;4928868;28;95164;-53
2022/11/11 09:07:52;;;;;;;71.75;52.00;;;16.60;72.30;;;;;;4940737;28;97332;-51
2022/11/11 09:10:17;;;;;;;70.82;51.90;;;16.60;72.30;;;;;;4945239;28;95609;-53
2022/11/11 09:12:43;;;;;;;72.00;52.45;;;16.60;72.20;;;;;;4942516;28;95267;-53
2022/11/11 09:15:09;;;;;;;73.03;52.90;;;16.60;72.10;;;;;;4941376;28;97803;-53
2022/11/11 09:17:34;;;;;;;72.63;52.58;;;16.60;71.90;;;;;;4946082;28;97573;-54
2022/11/11 09:20:00;;;;;;;71.70;52.72;;;16.70;72.10;;;;;;4943019;28;95385;-53
2022/11/11 09:22:26;;;;;;;72.05;51.97;;;16.60;71.90;;;;;;4947046;28;95832;-54
2022/11/11 09:24:52;;;;;;;70.88;51.78;;;16.60;71.90;;;;;;4936006;28;97400;-54
2022/11/11 09:27:17;;;;;;;71.13;52.30;;;16.70;72.70;;;;;;4947941;28;95073;-55
2022/11/11 09:29:43;;;;;;;72.95;52.45;;;16.60;72.00;;;;;;4943155;28;95657;-52
2022/11/11 09:32:09;;;;;;;71.90;51.78;;;16.70;71.90;;;;;;4945188;28;94731;-51
2022/11/11 09:34:34;;;;;;;72.25;52.83;;;16.60;71.80;;;;;;4946734;28;95738;-54
2022/11/11 09:37:00;;;;;;;70.60;51.65;;;16.60;71.70;;;;;;4950511;28;95202;-53
2022/11/11 09:39:25;;;;;;;71.95;52.03;;;16.60;71.70;;;;;;4939979;28;98103;-54
2022/11/11 09:41:58;;;;;;;73.22;52.85;;;16.60;71.70;;;;;;4949600;28;96218;-51
2022/11/11 09:44:40;;;;;;;70.47;51.63;;;16.70;71.60;;;;;;4945219;28;95798;-53
2022/11/11 09:47:34;;;;;;;70.93;52.13;;;16.60;71.60;;;;;;4941608;28;97345;-54
2022/11/11 09:50:04;;;;;;;72.20;52.22;;;16.60;71.70;;;;;;4948960;28;95434;-52
2022/11/11 09:52:46;;;;;;;71.70;52.40;;;16.70;71.80;;;;;;4937808;28;95382;-53
2022/11/11 09:55:22;;;;;;;71.60;52.15;;;16.80;71.90;;;;;;4936085;28;96241;-50
2022/11/11 09:57:57;;;;;;;71.32;52.25;;;16.80;71.60;;;;;;4944629;28;94862;-50
2022/11/11 10:00:30;;;;;;;72.63;52.65;;;16.70;71.60;;;;;;4940982;28;96138;-50
2022/11/11 10:03:21;;;;;;;73.40;52.60;;;16.70;71.50;;;;;;4938905;28;95051;-49
2022/11/11 10:06:14;;;;;;;72.50;52.40;;;16.70;71.80;;;;;;4945077;28;97967;-52
2022/11/11 10:08:47;;;;;;;72.10;52.67;;;16.70;71.80;;;;;;4946874;28;96813;-51
2022/11/11 10:11:28;;;;;;;71.32;52.30;;;16.70;71.80;;;;;;4938608;28;95555;-52
2022/11/11 10:13:55;;;;;;;72.68;52.33;;;16.70;71.80;;;;;;4935282;28;96513;-52
2022/11/11 10:16:46;;;;;;;72.13;52.40;;;16.70;71.60;;;;;;4938936;28;98052;-54
2022/11/11 10:19:15;;;;;;;71.95;52.33;;;16.70;71.80;;;;;;4953098;28;96401;-52
2022/11/11 10:21:53;;;;;;;72.32;52.55;;;16.70;71.60;;;;;;4940355;28;97628;-53
2022/11/11 10:24:33;;;;;;;77.30;53.25;;;16.70;71.70;;;;;;4935876;28;94299;-52
2022/11/11 10:27:10;;;;;;;73.45;52.45;;;16.70;71.70;;;;;;4946796;28;95176;-52
2022/11/11 10:29:44;;;;;;;71.72;52.42;;;16.70;72.50;;;;;;4940112;28;96338;-51
2022/11/11 10:32:20;;;;;;;73.50;53.03;;;16.70;71.70;;;;;;4933629;28;96578;-50
2022/11/11 10:34:46;;;;;;;73.28;53.20;;;16.70;71.80;;;;;;4938856;28;95254;-51
2022/11/11 10:37:22;;;;;;;74.68;52.50;;;16.70;71.70;;;;;;4940465;28;95285;-52
2022/11/11 10:39:57;;;;;;;73.18;53.10;;;16.70;71.60;;;;;;4936438;28;95781;-50
2022/11/11 10:42:23;;;;;;;74.28;52.78;;;16.70;71.70;;;;;;4945455;28;102297;-52
2022/11/11 10:44:53;;;;;;;76.53;52.58;;;16.80;71.80;;;;;;4934176;28;96078;-50
2022/11/11 10:48:08;;;;;;;74.90;53.13;;;16.80;71.80;;;;;;4943107;28;98255;-51
2022/11/11 10:50:38;;;;;;;72.55;52.50;;;16.80;71.80;;;;;;4895112;28;95463;-53
2022/11/11 10:53:31;;;;;;;75.22;53.33;;;16.80;71.70;;;;;;4895921;28;95333;-51
2022/11/11 10:56:17;;;;;;;75.00;52.83;;;16.80;71.80;;;;;;4934251;28;95486;-48
2022/11/11 10:58:46;;;;;;;73.55;52.75;;;16.80;71.80;;;;;;4937343;28;96207;-51
2022/11/11 11:01:19;;;;;;;75.15;53.53;;;16.80;71.70;;;;;;4940976;28;96713;-52
2022/11/11 11:03:49;;;;;;;78.78;53.72;;;16.80;71.80;;;;;;4932886;28;95620;-50
2022/11/11 11:06:32;;;;;;;74.80;53.20;;;16.80;71.70;;;;;;4946038;28;95159;-49
2022/11/11 11:09:05;;;;;;;74.32;53.60;;;16.80;71.70;;;;;;4942499;28;95206;-49
2022/11/11 11:11:33;;;;;;;75.85;52.95;;;16.80;71.90;;;;;;4941670;28;96243;-50
2022/11/11 11:14:05;;;;;;;77.35;52.80;;;16.80;71.80;;;;;;4938330;28;95976;-53
2022/11/11 11:16:36;;;;;;;74.15;53.75;;;16.80;71.80;;;;;;4940174;28;96523;-53
2022/11/11 11:19:23;;;;;;;74.78;52.92;;;16.80;71.80;;;;;;4947508;28;95116;-51
2022/11/11 11:22:00;;;;;;;76.30;53.30;;;16.80;71.70;;;;;;4946229;28;95107;-52
2022/11/11 11:24:36;;;;;;;74.07;52.95;;;16.90;71.90;;;;;;4936161;28;96840;-52
2022/11/11 11:27:05;;;;;;;74.72;53.25;;;16.80;71.80;;;;;;4935095;28;100870;-54
2022/11/11 11:29:36;;;;;;;77.60;52.90;;;16.90;71.90;;;;;;4939754;28;97126;-52
2022/11/11 11:32:11;;;;;;;73.97;52.22;;;16.90;71.90;;;;;;4942734;28;96458;-52
2022/11/11 11:34:50;;;;;;;74.10;52.72;;;16.90;72.00;;;;;;4947745;28;95483;-51
2022/11/11 11:37:18;;;;;;;75.15;52.38;;;16.90;71.90;;;;;;4940039;28;95003;-50
2022/11/11 11:39:45;;;;;;;74.80;53.05;;;16.80;71.80;;;;;;4942892;28;95101;-53
2022/11/11 11:42:36;;;;;;;74.43;52.92;;;16.90;71.90;;;;;;4943165;28;94126;-52
2022/11/11 11:45:30;;;;;;;74.47;52.75;;;16.90;72.00;;;;;;4943196;28;97949;-55
2022/11/11 11:48:24;;;;;;;73.30;53.25;;;16.90;72.00;;;;;;4933808;28;98927;-53
2022/11/11 11:50:54;;;;;;;74.00;52.72;;;16.90;71.90;;;;;;4946297;28;96088;-50
2022/11/11 11:53:40;;;;;;;73.03;52.97;;;16.90;72.00;;;;;;4940826;28;101566;-52
2022/11/11 11:56:19;;;;;;;75.93;52.88;;;16.90;72.00;;;;;;4934487;28;96453;-52
2022/11/11 11:59:13;;;;;;;74.03;52.95;;;16.90;71.90;;;;;;4936520;28;97430;-52
2022/11/11 12:02:02;;;;;;;76.40;53.42;;;16.90;72.00;;;;;;4937080;28;96742;-53
2022/11/11 12:04:51;;;;;;;73.82;53.25;;;16.90;72.10;;;;;;4921455;28;100420;-50
2022/11/11 12:07:17;;;;;;;73.85;53.10;;;17.10;74.10;;;;;;4946200;28;95488;-56
2022/11/11 12:10:02;;;;;;;73.40;52.42;;;17.40;73.30;;;;;;4948778;28;95314;-56
2022/11/11 12:12:52;;;;;;;75.60;52.90;;;17.60;72.40;;;;;;4945330;28;95177;-55
2022/11/11 12:15:30;;;;;;;77.00;53.17;;;17.70;72.20;;;;;;4939765;28;95954;-56
2022/11/11 12:18:25;;;;;;;74.82;52.88;;;17.80;72.30;;;;;;4940836;28;96345;-53
2022/11/11 12:21:30;;;;;;;78.35;53.03;;;17.90;72.10;;;;;;4936416;28;97703;-56
2022/11/11 12:24:08;;;;;;;77.47;53.80;;;17.90;71.70;;;;;;4889753;28;95138;-56
2022/11/11 12:27:08;;;;;;;74.22;52.83;;;18.00;71.50;;;;;;4941707;28;96033;-56
2022/11/11 12:30:01;;;;;;;75.90;53.55;;;18.00;71.70;;;;;;4940339;28;96375;-55
2022/11/11 12:32:54;;;;;;;77.65;52.95;;;18.00;71.40;;;;;;4945297;28;95573;-56
2022/11/11 12:35:47;;;;;;;78.68;53.88;;;18.10;71.40;;;;;;4940283;28;95358;-56
2022/11/11 12:38:31;;;;;;;76.13;53.42;;;18.20;70.90;;;;;;4940157;28;96263;-55
2022/11/11 12:41:30;;;;;;;76.80;53.22;;;18.20;70.70;;;;;;4925759;28;101825;-54
2022/11/11 12:44:08;;;;;;;75.68;53.15;;;18.20;70.80;;;;;;4935553;28;96041;-54
2022/11/11 12:47:09;;;;;;;75.55;53.08;;;18.20;70.60;;;;;;4945801;28;96984;-53
2022/11/11 12:49:56;;;;;;;80.35;53.20;;;18.20;70.50;;;;;;4937759;28;95773;-53
2022/11/11 12:52:45;;;;;;;77.43;53.58;;;18.20;70.60;;;;;;4935951;28;96436;-52
2022/11/11 12:55:11;;;;;;;76.35;54.70;;;18.20;70.30;;;;;;4939366;28;95596;-55
2022/11/11 12:57:57;;;;;;;82.65;55.88;;;18.20;70.10;;;;;;4938922;28;95101;-52
2022/11/11 13:00:25;;;;;;;78.07;55.30;;;18.20;70.20;;;;;;4944261;28;97509;-51
2022/11/11 13:03:02;;;;;;;77.18;54.67;;;18.20;70.00;;;;;;4939224;28;95662;-55
2022/11/11 13:05:46;;;;;;;80.43;54.15;;;18.20;69.80;;;;;;4938361;28;98621;-52
2022/11/11 13:08:29;;;;;;;78.97;53.75;;;18.30;69.80;;;;;;4935772;28;98223;-56
2022/11/11 13:11:07;;;;;;;76.22;54.03;;;18.30;69.60;;;;;;4935650;28;101567;-54
2022/11/11 13:14:18;;;;;;;77.93;54.70;;;18.30;68.90;;;;;;4935998;28;96430;-54
2022/11/11 13:16:44;;;;;;;77.87;54.33;;;18.30;69.40;;;;;;4938976;28;95656;-56
2022/11/11 13:19:30;;;;;;;80.03;54.63;;;18.30;69.30;;;;;;4934915;28;95185;-54
2022/11/11 13:22:24;;;;;;;77.07;54.40;;;18.40;69.20;;;;;;4939977;28;95278;-54
2022/11/11 13:24:50;;;;;;;75.75;54.03;;;18.40;69.30;;;;;;4927281;28;95721;-55
2022/11/11 13:27:23;;;;;;;76.47;53.92;;;18.40;69.20;;;;;;4937131;28;96032;-55
2022/11/11 13:30:04;;;;;;;76.05;53.25;;;18.40;69.20;;;;;;4951222;28;94662;-54
2022/11/11 13:32:41;;;;;;;77.05;54.00;;;18.40;69.30;;;;;;4941319;28;95371;-54
2022/11/11 13:35:24;;;;;;;77.35;54.13;;;18.40;69.20;;;;;;4936776;28;96760;-53
2022/11/11 13:37:49;;;;;;;77.95;53.55;;;18.40;69.20;;;;;;4934411;28;95135;-54
2022/11/11 13:40:39;;;;;;;77.90;53.95;;;18.50;69.00;;;;;;4932733;28;96778;-56
2022/11/11 13:43:15;;;;;;;78.90;53.65;;;18.50;68.80;;;;;;4946697;28;95327;-55
2022/11/11 13:45:42;;;;;;;77.60;54.13;;;18.60;68.80;;;;;;4934907;28;96320;-54
2022/11/11 13:48:28;;;;;;;81.18;53.92;;;18.60;68.70;;;;;;4943838;28;97637;-55
2022/11/11 13:51:32;;;;;;;78.18;53.65;;;18.60;68.80;;;;;;4937101;28;101426;-56
2022/11/11 13:54:01;;;;;;;79.35;54.53;;;18.60;68.60;;;;;;4943158;28;98279;-56